sensor_id;sensor_type;location;lat;lon;timestamp;P1;durP1;ratioP1;P2;durP2;ratioP2
40787;SDS011;26497;52.494;7.546;2023-02-28T00:00:52;6.35;;;3.38;;
40787;SDS011;26497;52.494;7.546;2023-02-28T00:03:19;8.48;;;3.45;;
40787;SDS011;26497;52.494;7.546;2023-02-28T00:05:46;6.75;;;3.80;;
40787;SDS011;26497;52.494;7.546;2023-02-28T00:08:13;17.05;;;4.75;;
40787;SDS011;26497;52.494;7.546;2023-02-28T00:10:40;5.57;;;3.35;;
40787;SDS011;26497;52.494;7.546;2023-02-28T00:13:08;5.03;;;2.97;;
40787;SDS011;26497;52.494;7.546;2023-02-28T00:15:36;8.73;;;3.05;;
40787;SDS011;26497;52.494;7.546;2023-02-28T00:18:04;7.90;;;4.65;;
40787;SDS011;26497;52.494;7.546;2023-02-28T00:20:31;7.38;;;3.92;;
40787;SDS011;26497;52.494;7.546;2023-02-28T00:22:58;4.68;;;3.53;;
40787;SDS011;26497;52.494;7.546;2023-02-28T00:25:25;7.95;;;3.17;;
40787;SDS011;26497;52.494;7.546;2023-02-28T00:27:52;6.07;;;2.95;;
40787;SDS011;26497;52.494;7.546;2023-02-28T00:30:21;4.82;;;3.22;;
40787;SDS011;26497;52.494;7.546;2023-02-28T00:32:50;3.90;;;3.33;;
40787;SDS011;26497;52.494;7.546;2023-02-28T00:35:19;4.93;;;3.03;;
40787;SDS011;26497;52.494;7.546;2023-02-28T00:37:46;4.28;;;2.80;;
40787;SDS011;26497;52.494;7.546;2023-02-28T00:40:15;6.43;;;3.22;;
40787;SDS011;26497;52.494;7.546;2023-02-28T00:42:42;4.13;;;3.10;;
40787;SDS011;26497;52.494;7.546;2023-02-28T00:45:09;7.75;;;3.88;;
40787;SDS011;26497;52.494;7.546;2023-02-28T00:47:37;6.03;;;2.95;;
40787;SDS011;26497;52.494;7.546;2023-02-28T00:50:04;7.95;;;3.83;;
40787;SDS011;26497;52.494;7.546;2023-02-28T00:52:34;5.88;;;2.90;;
40787;SDS011;26497;52.494;7.546;2023-02-28T00:55:02;9.20;;;3.30;;
40787;SDS011;26497;52.494;7.546;2023-02-28T00:57:29;5.22;;;3.33;;
40787;SDS011;26497;52.494;7.546;2023-02-28T00:59:56;5.38;;;3.15;;
40787;SDS011;26497;52.494;7.546;2023-02-28T01:02:23;6.30;;;3.25;;
40787;SDS011;26497;52.494;7.546;2023-02-28T01:04:50;8.85;;;2.78;;
40787;SDS011;26497;52.494;7.546;2023-02-28T01:07:17;3.13;;;2.75;;
40787;SDS011;26497;52.494;7.546;2023-02-28T01:09:46;11.68;;;3.58;;
40787;SDS011;26497;52.494;7.546;2023-02-28T01:12:13;8.93;;;3.45;;
40787;SDS011;26497;52.494;7.546;2023-02-28T01:14:41;4.50;;;2.72;;
40787;SDS011;26497;52.494;7.546;2023-02-28T01:17:08;6.43;;;3.15;;
40787;SDS011;26497;52.494;7.546;2023-02-28T01:19:35;4.45;;;3.00;;
40787;SDS011;26497;52.494;7.546;2023-02-28T01:22:03;8.77;;;4.47;;
40787;SDS011;26497;52.494;7.546;2023-02-28T01:24:31;4.63;;;3.05;;
40787;SDS011;26497;52.494;7.546;2023-02-28T01:27:00;9.52;;;2.67;;
40787;SDS011;26497;52.494;7.546;2023-02-28T01:29:27;8.35;;;3.55;;
40787;SDS011;26497;52.494;7.546;2023-02-28T01:31:54;12.57;;;4.05;;
40787;SDS011;26497;52.494;7.546;2023-02-28T01:34:22;5.93;;;3.58;;
40787;SDS011;26497;52.494;7.546;2023-02-28T01:36:49;4.53;;;2.78;;
40787;SDS011;26497;52.494;7.546;2023-02-28T01:39:16;8.05;;;3.28;;
40787;SDS011;26497;52.494;7.546;2023-02-28T01:41:43;6.68;;;3.10;;
40787;SDS011;26497;52.494;7.546;2023-02-28T01:47:23;6.13;;;3.17;;
40787;SDS011;26497;52.494;7.546;2023-02-28T01:49:56;7.78;;;3.03;;
40787;SDS011;26497;52.494;7.546;2023-02-28T01:52:25;8.98;;;2.63;;
40787;SDS011;26497;52.494;7.546;2023-02-28T01:54:53;7.53;;;3.30;;
40787;SDS011;26497;52.494;7.546;2023-02-28T01:57:23;6.30;;;3.40;;
40787;SDS011;26497;52.494;7.546;2023-02-28T01:59:57;7.13;;;3.22;;
40787;SDS011;26497;52.494;7.546;2023-02-28T02:02:32;7.95;;;3.22;;
40787;SDS011;26497;52.494;7.546;2023-02-28T02:05:02;4.57;;;3.45;;
40787;SDS011;26497;52.494;7.546;2023-02-28T02:07:33;7.53;;;4.22;;
40787;SDS011;26497;52.494;7.546;2023-02-28T02:10:04;5.18;;;3.35;;
40787;SDS011;26497;52.494;7.546;2023-02-28T02:16:08;6.03;;;2.88;;
40787;SDS011;26497;52.494;7.546;2023-02-28T02:18:51;6.22;;;2.70;;
40787;SDS011;26497;52.494;7.546;2023-02-28T02:21:47;6.45;;;3.13;;
40787;SDS011;26497;52.494;7.546;2023-02-28T02:27:50;9.45;;;4.60;;
40787;SDS011;26497;52.494;7.546;2023-02-28T02:34:16;12.18;;;4.85;;
40787;SDS011;26497;52.494;7.546;2023-02-28T02:36:58;8.15;;;3.88;;
40787;SDS011;26497;52.494;7.546;2023-02-28T02:39:37;6.53;;;3.95;;
40787;SDS011;26497;52.494;7.546;2023-02-28T02:42:14;9.90;;;3.55;;
40787;SDS011;26497;52.494;7.546;2023-02-28T02:44:48;7.32;;;3.40;;
40787;SDS011;26497;52.494;7.546;2023-02-28T02:47:22;6.47;;;3.58;;
40787;SDS011;26497;52.494;7.546;2023-02-28T02:52:28;7.13;;;4.13;;
40787;SDS011;26497;52.494;7.546;2023-02-28T02:54:59;7.10;;;4.63;;
40787;SDS011;26497;52.494;7.546;2023-02-28T02:57:30;6.97;;;3.78;;
40787;SDS011;26497;52.494;7.546;2023-02-28T03:00:02;3.97;;;3.55;;
40787;SDS011;26497;52.494;7.546;2023-02-28T03:05:04;7.60;;;4.28;;
40787;SDS011;26497;52.494;7.546;2023-02-28T03:07:40;10.35;;;4.10;;
40787;SDS011;26497;52.494;7.546;2023-02-28T03:13:18;7.60;;;3.88;;
40787;SDS011;26497;52.494;7.546;2023-02-28T03:16:13;10.13;;;3.17;;
40787;SDS011;26497;52.494;7.546;2023-02-28T03:19:03;7.80;;;3.17;;
40787;SDS011;26497;52.494;7.546;2023-02-28T03:22:01;17.65;;;4.32;;
40787;SDS011;26497;52.494;7.546;2023-02-28T03:24:42;7.15;;;3.72;;
40787;SDS011;26497;52.494;7.546;2023-02-28T03:27:16;7.43;;;3.22;;
40787;SDS011;26497;52.494;7.546;2023-02-28T03:29:51;10.65;;;4.57;;
40787;SDS011;26497;52.494;7.546;2023-02-28T03:32:28;8.38;;;3.05;;
40787;SDS011;26497;52.494;7.546;2023-02-28T03:35:02;9.13;;;4.63;;
40787;SDS011;26497;52.494;7.546;2023-02-28T03:37:38;8.60;;;4.97;;
40787;SDS011;26497;52.494;7.546;2023-02-28T03:40:10;8.73;;;4.60;;
40787;SDS011;26497;52.494;7.546;2023-02-28T03:42:42;8.50;;;3.70;;
40787;SDS011;26497;52.494;7.546;2023-02-28T03:45:15;9.60;;;4.07;;
40787;SDS011;26497;52.494;7.546;2023-02-28T03:47:49;6.22;;;4.82;;
40787;SDS011;26497;52.494;7.546;2023-02-28T03:50:21;10.18;;;4.90;;
40787;SDS011;26497;52.494;7.546;2023-02-28T03:52:55;11.43;;;5.43;;
40787;SDS011;26497;52.494;7.546;2023-02-28T03:55:30;9.65;;;3.80;;
40787;SDS011;26497;52.494;7.546;2023-02-28T03:58:04;9.23;;;4.50;;
40787;SDS011;26497;52.494;7.546;2023-02-28T04:00:40;10.27;;;4.60;;
40787;SDS011;26497;52.494;7.546;2023-02-28T04:03:13;11.85;;;4.97;;
40787;SDS011;26497;52.494;7.546;2023-02-28T04:05:45;10.23;;;5.10;;
40787;SDS011;26497;52.494;7.546;2023-02-28T04:08:19;11.90;;;5.30;;
40787;SDS011;26497;52.494;7.546;2023-02-28T04:10:48;9.10;;;5.07;;
40787;SDS011;26497;52.494;7.546;2023-02-28T04:13:21;10.18;;;5.35;;
40787;SDS011;26497;52.494;7.546;2023-02-28T04:15:48;11.23;;;4.93;;
40787;SDS011;26497;52.494;7.546;2023-02-28T04:18:16;10.98;;;4.70;;
40787;SDS011;26497;52.494;7.546;2023-02-28T04:20:43;11.73;;;4.68;;
40787;SDS011;26497;52.494;7.546;2023-02-28T04:23:10;11.65;;;4.65;;
40787;SDS011;26497;52.494;7.546;2023-02-28T04:25:41;7.20;;;5.18;;
40787;SDS011;26497;52.494;7.546;2023-02-28T04:28:08;9.80;;;4.03;;
40787;SDS011;26497;52.494;7.546;2023-02-28T04:30:37;7.05;;;4.18;;
40787;SDS011;26497;52.494;7.546;2023-02-28T04:33:05;11.70;;;5.22;;
40787;SDS011;26497;52.494;7.546;2023-02-28T04:35:32;7.47;;;3.85;;
40787;SDS011;26497;52.494;7.546;2023-02-28T04:37:59;10.52;;;5.03;;
40787;SDS011;26497;52.494;7.546;2023-02-28T04:40:26;13.88;;;5.80;;
40787;SDS011;26497;52.494;7.546;2023-02-28T04:42:55;6.57;;;3.90;;
40787;SDS011;26497;52.494;7.546;2023-02-28T04:45:22;9.57;;;4.35;;
40787;SDS011;26497;52.494;7.546;2023-02-28T04:47:49;9.93;;;5.03;;
40787;SDS011;26497;52.494;7.546;2023-02-28T04:50:16;7.88;;;4.32;;
40787;SDS011;26497;52.494;7.546;2023-02-28T04:52:43;10.82;;;4.32;;
40787;SDS011;26497;52.494;7.546;2023-02-28T04:55:11;9.60;;;4.70;;
40787;SDS011;26497;52.494;7.546;2023-02-28T04:57:38;9.05;;;4.75;;
40787;SDS011;26497;52.494;7.546;2023-02-28T05:00:09;8.35;;;4.22;;
40787;SDS011;26497;52.494;7.546;2023-02-28T05:02:41;5.47;;;4.20;;
40787;SDS011;26497;52.494;7.546;2023-02-28T05:05:09;7.82;;;5.43;;
40787;SDS011;26497;52.494;7.546;2023-02-28T05:07:37;26.90;;;5.07;;
40787;SDS011;26497;52.494;7.546;2023-02-28T05:10:04;6.82;;;4.57;;
40787;SDS011;26497;52.494;7.546;2023-02-28T05:12:32;10.68;;;5.90;;
40787;SDS011;26497;52.494;7.546;2023-02-28T05:14:59;8.90;;;5.20;;
40787;SDS011;26497;52.494;7.546;2023-02-28T05:17:28;15.95;;;6.65;;
40787;SDS011;26497;52.494;7.546;2023-02-28T05:19:55;9.70;;;5.50;;
40787;SDS011;26497;52.494;7.546;2023-02-28T05:22:22;11.45;;;5.82;;
40787;SDS011;26497;52.494;7.546;2023-02-28T05:24:49;8.48;;;6.15;;
40787;SDS011;26497;52.494;7.546;2023-02-28T05:27:20;16.00;;;6.13;;
40787;SDS011;26497;52.494;7.546;2023-02-28T05:29:47;12.60;;;6.65;;
40787;SDS011;26497;52.494;7.546;2023-02-28T05:32:14;12.45;;;6.22;;
40787;SDS011;26497;52.494;7.546;2023-02-28T05:34:43;9.77;;;5.30;;
40787;SDS011;26497;52.494;7.546;2023-02-28T05:37:11;7.95;;;5.50;;
40787;SDS011;26497;52.494;7.546;2023-02-28T05:39:40;14.38;;;6.53;;
40787;SDS011;26497;52.494;7.546;2023-02-28T05:42:10;23.75;;;7.10;;
40787;SDS011;26497;52.494;7.546;2023-02-28T05:44:37;12.85;;;6.93;;
40787;SDS011;26497;52.494;7.546;2023-02-28T05:47:04;16.20;;;7.38;;
40787;SDS011;26497;52.494;7.546;2023-02-28T05:49:31;12.85;;;8.00;;
40787;SDS011;26497;52.494;7.546;2023-02-28T05:52:00;11.20;;;7.20;;
40787;SDS011;26497;52.494;7.546;2023-02-28T05:54:27;12.98;;;8.77;;
40787;SDS011;26497;52.494;7.546;2023-02-28T05:56:54;13.05;;;7.15;;
40787;SDS011;26497;52.494;7.546;2023-02-28T05:59:21;17.55;;;7.45;;
40787;SDS011;26497;52.494;7.546;2023-02-28T06:01:48;16.20;;;8.15;;
40787;SDS011;26497;52.494;7.546;2023-02-28T06:04:16;13.32;;;6.93;;
40787;SDS011;26497;52.494;7.546;2023-02-28T06:06:45;13.00;;;6.18;;
40787;SDS011;26497;52.494;7.546;2023-02-28T06:09:15;17.48;;;7.63;;
40787;SDS011;26497;52.494;7.546;2023-02-28T06:11:44;12.85;;;7.45;;
40787;SDS011;26497;52.494;7.546;2023-02-28T06:14:12;14.40;;;6.93;;
40787;SDS011;26497;52.494;7.546;2023-02-28T06:16:42;16.27;;;8.03;;
40787;SDS011;26497;52.494;7.546;2023-02-28T06:19:10;15.55;;;8.07;;
40787;SDS011;26497;52.494;7.546;2023-02-28T06:21:37;15.43;;;7.78;;
40787;SDS011;26497;52.494;7.546;2023-02-28T06:24:05;11.52;;;7.65;;
40787;SDS011;26497;52.494;7.546;2023-02-28T06:26:35;11.60;;;7.45;;
40787;SDS011;26497;52.494;7.546;2023-02-28T06:29:02;13.75;;;7.72;;
40787;SDS011;26497;52.494;7.546;2023-02-28T06:31:29;15.88;;;8.18;;
40787;SDS011;26497;52.494;7.546;2023-02-28T06:33:56;16.05;;;8.35;;
40787;SDS011;26497;52.494;7.546;2023-02-28T06:36:23;15.63;;;8.40;;
40787;SDS011;26497;52.494;7.546;2023-02-28T06:38:51;14.27;;;6.75;;
40787;SDS011;26497;52.494;7.546;2023-02-28T06:41:20;17.60;;;8.35;;
40787;SDS011;26497;52.494;7.546;2023-02-28T06:43:50;9.35;;;6.80;;
40787;SDS011;26497;52.494;7.546;2023-02-28T06:46:17;13.93;;;7.65;;
40787;SDS011;26497;52.494;7.546;2023-02-28T06:48:45;17.00;;;8.05;;
40787;SDS011;26497;52.494;7.546;2023-02-28T06:51:13;19.80;;;7.47;;
40787;SDS011;26497;52.494;7.546;2023-02-28T06:53:42;14.75;;;8.25;;
40787;SDS011;26497;52.494;7.546;2023-02-28T06:56:11;17.45;;;7.75;;
40787;SDS011;26497;52.494;7.546;2023-02-28T06:58:40;13.68;;;6.65;;
40787;SDS011;26497;52.494;7.546;2023-02-28T07:01:10;16.58;;;9.43;;
40787;SDS011;26497;52.494;7.546;2023-02-28T07:03:37;11.35;;;6.50;;
40787;SDS011;26497;52.494;7.546;2023-02-28T07:06:04;23.25;;;8.10;;
40787;SDS011;26497;52.494;7.546;2023-02-28T07:08:32;16.17;;;7.50;;
40787;SDS011;26497;52.494;7.546;2023-02-28T07:11:00;13.43;;;6.38;;
40787;SDS011;26497;52.494;7.546;2023-02-28T07:13:29;10.35;;;6.80;;
40787;SDS011;26497;52.494;7.546;2023-02-28T07:15:56;10.77;;;5.78;;
40787;SDS011;26497;52.494;7.546;2023-02-28T07:18:27;8.90;;;5.28;;
40787;SDS011;26497;52.494;7.546;2023-02-28T07:20:54;12.73;;;5.53;;
40787;SDS011;26497;52.494;7.546;2023-02-28T07:23:22;13.23;;;6.10;;
40787;SDS011;26497;52.494;7.546;2023-02-28T07:25:50;9.93;;;5.50;;
40787;SDS011;26497;52.494;7.546;2023-02-28T07:28:17;11.05;;;6.68;;
40787;SDS011;26497;52.494;7.546;2023-02-28T07:30:44;13.73;;;7.13;;
40787;SDS011;26497;52.494;7.546;2023-02-28T07:33:11;12.57;;;6.38;;
40787;SDS011;26497;52.494;7.546;2023-02-28T07:35:40;10.70;;;7.10;;
40787;SDS011;26497;52.494;7.546;2023-02-28T07:38:07;13.88;;;6.40;;
40787;SDS011;26497;52.494;7.546;2023-02-28T07:40:35;10.43;;;7.47;;
40787;SDS011;26497;52.494;7.546;2023-02-28T07:43:03;16.55;;;8.27;;
40787;SDS011;26497;52.494;7.546;2023-02-28T07:45:30;17.67;;;8.20;;
40787;SDS011;26497;52.494;7.546;2023-02-28T07:47:59;11.77;;;7.88;;
40787;SDS011;26497;52.494;7.546;2023-02-28T07:50:27;12.20;;;7.18;;
40787;SDS011;26497;52.494;7.546;2023-02-28T07:52:57;15.02;;;7.28;;
40787;SDS011;26497;52.494;7.546;2023-02-28T07:55:24;11.50;;;6.88;;
40787;SDS011;26497;52.494;7.546;2023-02-28T07:57:51;17.52;;;7.20;;
40787;SDS011;26497;52.494;7.546;2023-02-28T08:00:19;12.00;;;7.25;;
40787;SDS011;26497;52.494;7.546;2023-02-28T08:02:46;12.57;;;7.30;;
40787;SDS011;26497;52.494;7.546;2023-02-28T08:05:14;17.33;;;8.60;;
40787;SDS011;26497;52.494;7.546;2023-02-28T08:07:41;15.07;;;8.32;;
40787;SDS011;26497;52.494;7.546;2023-02-28T08:10:10;10.60;;;6.18;;
40787;SDS011;26497;52.494;7.546;2023-02-28T08:12:37;9.48;;;6.15;;
40787;SDS011;26497;52.494;7.546;2023-02-28T08:15:04;10.50;;;5.40;;
40787;SDS011;26497;52.494;7.546;2023-02-28T08:17:33;10.68;;;5.50;;
40787;SDS011;26497;52.494;7.546;2023-02-28T08:20:01;10.52;;;6.32;;
40787;SDS011;26497;52.494;7.546;2023-02-28T08:22:29;11.07;;;5.40;;
40787;SDS011;26497;52.494;7.546;2023-02-28T08:24:56;9.90;;;6.80;;
40787;SDS011;26497;52.494;7.546;2023-02-28T08:27:24;8.90;;;5.00;;
40787;SDS011;26497;52.494;7.546;2023-02-28T08:29:51;14.85;;;5.80;;
40787;SDS011;26497;52.494;7.546;2023-02-28T08:32:18;7.45;;;5.20;;
40787;SDS011;26497;52.494;7.546;2023-02-28T08:34:46;7.43;;;5.30;;
40787;SDS011;26497;52.494;7.546;2023-02-28T08:37:13;6.50;;;3.92;;
40787;SDS011;26497;52.494;7.546;2023-02-28T08:39:40;7.60;;;4.10;;
40787;SDS011;26497;52.494;7.546;2023-02-28T08:42:07;6.63;;;2.85;;
40787;SDS011;26497;52.494;7.546;2023-02-28T08:44:35;5.45;;;3.45;;
40787;SDS011;26497;52.494;7.546;2023-02-28T08:47:02;4.28;;;2.15;;
40787;SDS011;26497;52.494;7.546;2023-02-28T08:49:30;5.03;;;2.50;;
40787;SDS011;26497;52.494;7.546;2023-02-28T08:51:57;3.90;;;2.40;;
40787;SDS011;26497;52.494;7.546;2023-02-28T08:54:24;8.30;;;2.53;;
40787;SDS011;26497;52.494;7.546;2023-02-28T08:56:58;22.10;;;6.95;;
40787;SDS011;26497;52.494;7.546;2023-02-28T08:59:25;12.65;;;4.25;;
40787;SDS011;26497;52.494;7.546;2023-02-28T09:01:54;3.60;;;2.17;;
40787;SDS011;26497;52.494;7.546;2023-02-28T09:04:21;2.38;;;1.55;;
40787;SDS011;26497;52.494;7.546;2023-02-28T09:06:48;2.20;;;1.45;;
40787;SDS011;26497;52.494;7.546;2023-02-28T09:09:15;2.17;;;1.42;;
40787;SDS011;26497;52.494;7.546;2023-02-28T09:11:43;13.98;;;1.15;;
40787;SDS011;26497;52.494;7.546;2023-02-28T09:14:10;1.73;;;0.70;;
40787;SDS011;26497;52.494;7.546;2023-02-28T09:16:37;2.25;;;1.30;;
40787;SDS011;26497;52.494;7.546;2023-02-28T09:19:08;1.73;;;1.10;;
40787;SDS011;26497;52.494;7.546;2023-02-28T09:21:37;4.05;;;1.98;;
40787;SDS011;26497;52.494;7.546;2023-02-28T09:24:05;2.85;;;1.52;;
40787;SDS011;26497;52.494;7.546;2023-02-28T09:26:33;2.40;;;2.10;;
40787;SDS011;26497;52.494;7.546;2023-02-28T09:29:00;2.15;;;2.03;;
40787;SDS011;26497;52.494;7.546;2023-02-28T09:31:28;3.45;;;3.00;;
40787;SDS011;26497;52.494;7.546;2023-02-28T09:33:55;3.10;;;3.00;;
40787;SDS011;26497;52.494;7.546;2023-02-28T09:36:26;3.28;;;3.08;;
40787;SDS011;26497;52.494;7.546;2023-02-28T09:38:54;2.95;;;2.78;;
40787;SDS011;26497;52.494;7.546;2023-02-28T09:41:23;3.92;;;3.72;;
40787;SDS011;26497;52.494;7.546;2023-02-28T09:43:53;3.67;;;3.38;;
40787;SDS011;26497;52.494;7.546;2023-02-28T09:46:30;5.03;;;4.75;;
40787;SDS011;26497;52.494;7.546;2023-02-28T09:49:02;5.63;;;5.35;;
40787;SDS011;26497;52.494;7.546;2023-02-28T09:51:38;6.10;;;5.80;;
40787;SDS011;26497;52.494;7.546;2023-02-28T09:54:15;5.88;;;5.43;;
40787;SDS011;26497;52.494;7.546;2023-02-28T09:56:45;9.90;;;9.07;;
40787;SDS011;26497;52.494;7.546;2023-02-28T09:59:23;8.40;;;8.05;;
40787;SDS011;26497;52.494;7.546;2023-02-28T10:02:04;7.60;;;7.18;;
40787;SDS011;26497;52.494;7.546;2023-02-28T10:04:50;5.22;;;5.03;;
40787;SDS011;26497;52.494;7.546;2023-02-28T10:07:32;10.52;;;9.77;;
40787;SDS011;26497;52.494;7.546;2023-02-28T10:10:18;11.82;;;11.07;;
40787;SDS011;26497;52.494;7.546;2023-02-28T10:12:51;8.35;;;8.05;;
40787;SDS011;26497;52.494;7.546;2023-02-28T10:15:21;15.15;;;14.43;;
40787;SDS011;26497;52.494;7.546;2023-02-28T10:17:53;20.70;;;19.80;;
40787;SDS011;26497;52.494;7.546;2023-02-28T10:20:24;10.73;;;10.27;;
40787;SDS011;26497;52.494;7.546;2023-02-28T10:22:58;10.52;;;10.00;;
40787;SDS011;26497;52.494;7.546;2023-02-28T10:25:35;9.68;;;9.20;;
40787;SDS011;26497;52.494;7.546;2023-02-28T10:28:07;10.32;;;9.90;;
40787;SDS011;26497;52.494;7.546;2023-02-28T10:30:39;8.25;;;7.85;;
40787;SDS011;26497;52.494;7.546;2023-02-28T10:33:14;12.23;;;11.65;;
40787;SDS011;26497;52.494;7.546;2023-02-28T10:35:48;10.85;;;10.25;;
40787;SDS011;26497;52.494;7.546;2023-02-28T10:38:17;8.90;;;8.57;;
40787;SDS011;26497;52.494;7.546;2023-02-28T10:40:47;7.63;;;7.22;;
40787;SDS011;26497;52.494;7.546;2023-02-28T10:43:21;6.88;;;6.57;;
40787;SDS011;26497;52.494;7.546;2023-02-28T10:45:57;7.63;;;7.32;;
40787;SDS011;26497;52.494;7.546;2023-02-28T10:48:32;7.75;;;7.45;;
40787;SDS011;26497;52.494;7.546;2023-02-28T10:51:04;7.15;;;6.88;;
40787;SDS011;26497;52.494;7.546;2023-02-28T10:53:37;8.05;;;7.65;;
40787;SDS011;26497;52.494;7.546;2023-02-28T10:56:16;6.72;;;6.20;;
40787;SDS011;26497;52.494;7.546;2023-02-28T10:58:51;6.97;;;6.68;;
40787;SDS011;26497;52.494;7.546;2023-02-28T11:01:21;6.45;;;6.15;;
40787;SDS011;26497;52.494;7.546;2023-02-28T11:03:51;6.20;;;5.88;;
40787;SDS011;26497;52.494;7.546;2023-02-28T11:06:19;7.53;;;7.22;;
40787;SDS011;26497;52.494;7.546;2023-02-28T11:08:52;8.10;;;7.70;;
40787;SDS011;26497;52.494;7.546;2023-02-28T11:11:22;7.95;;;7.65;;
40787;SDS011;26497;52.494;7.546;2023-02-28T11:13:52;9.38;;;8.88;;
40787;SDS011;26497;52.494;7.546;2023-02-28T11:16:29;12.98;;;12.32;;
40787;SDS011;26497;52.494;7.546;2023-02-28T11:19:00;7.97;;;7.68;;
40787;SDS011;26497;52.494;7.546;2023-02-28T11:21:31;8.80;;;8.40;;
40787;SDS011;26497;52.494;7.546;2023-02-28T11:24:07;15.27;;;14.48;;
40787;SDS011;26497;52.494;7.546;2023-02-28T11:26:48;10.60;;;10.15;;
40787;SDS011;26497;52.494;7.546;2023-02-28T11:29:19;16.40;;;15.57;;
40787;SDS011;26497;52.494;7.546;2023-02-28T11:32:01;8.55;;;8.25;;
40787;SDS011;26497;52.494;7.546;2023-02-28T11:34:43;8.82;;;8.32;;
40787;SDS011;26497;52.494;7.546;2023-02-28T11:37:12;8.18;;;7.70;;
40787;SDS011;26497;52.494;7.546;2023-02-28T11:39:43;9.67;;;9.27;;
40787;SDS011;26497;52.494;7.546;2023-02-28T11:42:15;11.80;;;11.32;;
40787;SDS011;26497;52.494;7.546;2023-02-28T11:47:58;13.80;;;13.20;;
40787;SDS011;26497;52.494;7.546;2023-02-28T11:50:42;13.40;;;12.73;;
40787;SDS011;26497;52.494;7.546;2023-02-28T11:53:22;9.45;;;8.88;;
40787;SDS011;26497;52.494;7.546;2023-02-28T11:56:10;7.43;;;7.03;;
40787;SDS011;26497;52.494;7.546;2023-02-28T11:58:46;7.22;;;6.93;;
40787;SDS011;26497;52.494;7.546;2023-02-28T12:01:31;6.40;;;5.78;;
40787;SDS011;26497;52.494;7.546;2023-02-28T12:04:14;6.13;;;5.90;;
40787;SDS011;26497;52.494;7.546;2023-02-28T12:06:55;8.80;;;8.23;;
40787;SDS011;26497;52.494;7.546;2023-02-28T12:09:37;8.57;;;8.18;;
40787;SDS011;26497;52.494;7.546;2023-02-28T12:12:21;8.23;;;7.93;;
40787;SDS011;26497;52.494;7.546;2023-02-28T12:15:05;8.65;;;8.15;;
40787;SDS011;26497;52.494;7.546;2023-02-28T12:18:13;8.60;;;8.20;;
40787;SDS011;26497;52.494;7.546;2023-02-28T12:21:00;7.20;;;6.90;;
40787;SDS011;26497;52.494;7.546;2023-02-28T12:23:49;7.43;;;6.97;;
40787;SDS011;26497;52.494;7.546;2023-02-28T12:26:34;12.95;;;12.40;;
40787;SDS011;26497;52.494;7.546;2023-02-28T12:29:09;18.70;;;17.63;;
40787;SDS011;26497;52.494;7.546;2023-02-28T12:31:45;19.60;;;18.73;;
40787;SDS011;26497;52.494;7.546;2023-02-28T12:34:18;20.98;;;19.92;;
40787;SDS011;26497;52.494;7.546;2023-02-28T12:36:51;14.50;;;13.73;;
40787;SDS011;26497;52.494;7.546;2023-02-28T12:39:20;13.93;;;12.82;;
40787;SDS011;26497;52.494;7.546;2023-02-28T12:41:53;14.60;;;13.50;;
40787;SDS011;26497;52.494;7.546;2023-02-28T12:44:30;18.27;;;17.40;;
40787;SDS011;26497;52.494;7.546;2023-02-28T12:47:02;31.75;;;30.10;;
40787;SDS011;26497;52.494;7.546;2023-02-28T12:49:33;21.88;;;20.83;;
40787;SDS011;26497;52.494;7.546;2023-02-28T12:52:05;32.08;;;30.48;;
40787;SDS011;26497;52.494;7.546;2023-02-28T12:54:37;26.60;;;25.27;;
40787;SDS011;26497;52.494;7.546;2023-02-28T12:57:11;34.45;;;32.55;;
40787;SDS011;26497;52.494;7.546;2023-02-28T12:59:48;32.40;;;30.60;;
40787;SDS011;26497;52.494;7.546;2023-02-28T13:06:03;26.67;;;25.40;;
40787;SDS011;26497;52.494;7.546;2023-02-28T13:09:09;28.70;;;27.33;;
40787;SDS011;26497;52.494;7.546;2023-02-28T13:11:40;29.88;;;28.42;;
40787;SDS011;26497;52.494;7.546;2023-02-28T13:17:01;34.95;;;33.13;;
40787;SDS011;26497;52.494;7.546;2023-02-28T13:19:36;49.05;;;46.55;;
40787;SDS011;26497;52.494;7.546;2023-02-28T13:22:13;64.03;;;60.70;;
40787;SDS011;26497;52.494;7.546;2023-02-28T13:24:45;45.75;;;43.40;;
40787;SDS011;26497;52.494;7.546;2023-02-28T13:33:30;38.22;;;36.13;;
40787;SDS011;26497;52.494;7.546;2023-02-28T13:36:22;49.30;;;46.85;;
40787;SDS011;26497;52.494;7.546;2023-02-28T13:38:54;29.40;;;28.00;;
40787;SDS011;26497;52.494;7.546;2023-02-28T13:41:44;34.83;;;32.88;;
40787;SDS011;26497;52.494;7.546;2023-02-28T13:44:14;38.50;;;36.60;;
40787;SDS011;26497;52.494;7.546;2023-02-28T13:49:56;13.95;;;13.25;;
40787;SDS011;26497;52.494;7.546;2023-02-28T13:52:48;13.25;;;12.73;;
40787;SDS011;26497;52.494;7.546;2023-02-28T13:55:42;18.30;;;17.45;;
40787;SDS011;26497;52.494;7.546;2023-02-28T13:58:22;15.75;;;14.75;;
40787;SDS011;26497;52.494;7.546;2023-02-28T14:01:12;14.80;;;14.13;;
40787;SDS011;26497;52.494;7.546;2023-02-28T14:04:01;14.20;;;13.43;;
40787;SDS011;26497;52.494;7.546;2023-02-28T14:07:08;10.20;;;9.70;;
40787;SDS011;26497;52.494;7.546;2023-02-28T14:09:45;9.25;;;8.85;;
40787;SDS011;26497;52.494;7.546;2023-02-28T14:15:27;7.18;;;6.78;;
40787;SDS011;26497;52.494;7.546;2023-02-28T14:18:20;8.50;;;8.00;;
40787;SDS011;26497;52.494;7.546;2023-02-28T14:20:52;8.40;;;8.00;;
40787;SDS011;26497;52.494;7.546;2023-02-28T14:24:00;8.07;;;7.78;;
40787;SDS011;26497;52.494;7.546;2023-02-28T14:32:59;11.35;;;10.85;;
40787;SDS011;26497;52.494;7.546;2023-02-28T14:35:48;12.43;;;11.93;;
40787;SDS011;26497;52.494;7.546;2023-02-28T14:38:30;19.00;;;18.05;;
40787;SDS011;26497;52.494;7.546;2023-02-28T14:41:04;27.75;;;26.20;;
40787;SDS011;26497;52.494;7.546;2023-02-28T14:43:48;27.33;;;25.83;;
40787;SDS011;26497;52.494;7.546;2023-02-28T14:46:18;24.63;;;23.35;;
40787;SDS011;26497;52.494;7.546;2023-02-28T14:48:46;34.47;;;32.83;;
40787;SDS011;26497;52.494;7.546;2023-02-28T14:51:18;26.35;;;25.13;;
40787;SDS011;26497;52.494;7.546;2023-02-28T14:53:48;42.50;;;40.33;;
40787;SDS011;26497;52.494;7.546;2023-02-28T14:56:24;49.83;;;47.33;;
40787;SDS011;26497;52.494;7.546;2023-02-28T14:58:57;24.88;;;22.60;;
40787;SDS011;26497;52.494;7.546;2023-02-28T15:01:25;24.10;;;22.83;;
40787;SDS011;26497;52.494;7.546;2023-02-28T15:03:59;29.38;;;27.83;;
40787;SDS011;26497;52.494;7.546;2023-02-28T15:06:30;17.90;;;16.85;;
40787;SDS011;26497;52.494;7.546;2023-02-28T15:09:09;13.98;;;13.38;;
40787;SDS011;26497;52.494;7.546;2023-02-28T15:11:41;11.10;;;10.50;;
40787;SDS011;26497;52.494;7.546;2023-02-28T15:14:18;11.38;;;10.93;;
40787;SDS011;26497;52.494;7.546;2023-02-28T15:16:48;10.88;;;10.27;;
40787;SDS011;26497;52.494;7.546;2023-02-28T15:19:24;11.60;;;11.00;;
40787;SDS011;26497;52.494;7.546;2023-02-28T15:21:55;10.48;;;9.88;;
40787;SDS011;26497;52.494;7.546;2023-02-28T15:24:33;9.02;;;8.63;;
40787;SDS011;26497;52.494;7.546;2023-02-28T15:27:06;7.82;;;7.43;;
40787;SDS011;26497;52.494;7.546;2023-02-28T15:29:45;7.40;;;6.85;;
40787;SDS011;26497;52.494;7.546;2023-02-28T15:32:26;6.35;;;6.00;;
40787;SDS011;26497;52.494;7.546;2023-02-28T15:34:57;6.07;;;5.78;;
40787;SDS011;26497;52.494;7.546;2023-02-28T15:37:26;7.18;;;6.88;;
40787;SDS011;26497;52.494;7.546;2023-02-28T15:40:07;4.53;;;4.25;;
40787;SDS011;26497;52.494;7.546;2023-02-28T15:42:42;4.38;;;4.13;;
40787;SDS011;26497;52.494;7.546;2023-02-28T15:45:27;2.22;;;1.67;;
40787;SDS011;26497;52.494;7.546;2023-02-28T15:48:00;2.30;;;2.10;;
40787;SDS011;26497;52.494;7.546;2023-02-28T15:50:27;1.58;;;1.40;;
40787;SDS011;26497;52.494;7.546;2023-02-28T15:52:55;2.47;;;0.93;;
40787;SDS011;26497;52.494;7.546;2023-02-28T15:55:23;0.73;;;0.70;;
40787;SDS011;26497;52.494;7.546;2023-02-28T15:57:57;1.40;;;0.95;;